sensor_id;sensor_type;location;lat;lon;timestamp;P1;durP1;ratioP1;P2;durP2;ratioP2
50379;SDS011;37474;59.468;18.040;2024-03-22T00:01:42;7.73;;;5.67;;
50379;SDS011;37474;59.468;18.040;2024-03-22T00:04:09;6.67;;;5.10;;
50379;SDS011;37474;59.468;18.040;2024-03-22T00:09:07;7.47;;;5.27;;
50379;SDS011;37474;59.468;18.040;2024-03-22T00:11:33;7.10;;;5.33;;
50379;SDS011;37474;59.468;18.040;2024-03-22T00:14:00;9.77;;;5.90;;
50379;SDS011;37474;59.468;18.040;2024-03-22T00:16:28;8.47;;;5.90;;
50379;SDS011;37474;59.468;18.040;2024-03-22T00:18:55;8.40;;;5.10;;
50379;SDS011;37474;59.468;18.040;2024-03-22T00:21:21;6.17;;;4.80;;
50379;SDS011;37474;59.468;18.040;2024-03-22T00:23:49;6.90;;;5.00;;
50379;SDS011;37474;59.468;18.040;2024-03-22T00:26:18;7.07;;;5.03;;
50379;SDS011;37474;59.468;18.040;2024-03-22T00:28:45;9.80;;;4.90;;
50379;SDS011;37474;59.468;18.040;2024-03-22T00:31:11;8.63;;;5.30;;
50379;SDS011;37474;59.468;18.040;2024-03-22T00:33:39;7.83;;;4.90;;
50379;SDS011;37474;59.468;18.040;2024-03-22T00:36:05;7.67;;;5.00;;
50379;SDS011;37474;59.468;18.040;2024-03-22T00:38:33;7.77;;;5.30;;
50379;SDS011;37474;59.468;18.040;2024-03-22T00:40:59;8.27;;;5.80;;
50379;SDS011;37474;59.468;18.040;2024-03-22T00:43:26;9.03;;;6.13;;
50379;SDS011;37474;59.468;18.040;2024-03-22T00:45:52;8.57;;;5.53;;
50379;SDS011;37474;59.468;18.040;2024-03-22T00:48:19;9.10;;;6.13;;
50379;SDS011;37474;59.468;18.040;2024-03-22T00:50:47;10.43;;;5.77;;
50379;SDS011;37474;59.468;18.040;2024-03-22T00:53:15;8.68;;;5.50;;
50379;SDS011;37474;59.468;18.040;2024-03-22T00:55:42;10.47;;;5.43;;
50379;SDS011;37474;59.468;18.040;2024-03-22T00:58:09;8.47;;;5.60;;
50379;SDS011;37474;59.468;18.040;2024-03-22T01:00:35;8.93;;;6.07;;
50379;SDS011;37474;59.468;18.040;2024-03-22T01:03:03;9.17;;;6.13;;
50379;SDS011;37474;59.468;18.040;2024-03-22T01:05:31;10.40;;;6.40;;
50379;SDS011;37474;59.468;18.040;2024-03-22T01:07:58;10.60;;;6.90;;
50379;SDS011;37474;59.468;18.040;2024-03-22T01:10:25;9.13;;;6.40;;
50379;SDS011;37474;59.468;18.040;2024-03-22T01:12:52;11.97;;;7.23;;
50379;SDS011;37474;59.468;18.040;2024-03-22T01:15:19;11.77;;;6.90;;
50379;SDS011;37474;59.468;18.040;2024-03-22T01:17:45;11.80;;;7.30;;
50379;SDS011;37474;59.468;18.040;2024-03-22T01:20:12;11.20;;;7.23;;
50379;SDS011;37474;59.468;18.040;2024-03-22T01:22:38;13.17;;;7.23;;
50379;SDS011;37474;59.468;18.040;2024-03-22T01:25:07;11.10;;;6.97;;
50379;SDS011;37474;59.468;18.040;2024-03-22T01:27:35;11.83;;;7.47;;
50379;SDS011;37474;59.468;18.040;2024-03-22T01:30:02;12.73;;;7.80;;
50379;SDS011;37474;59.468;18.040;2024-03-22T01:32:29;13.87;;;8.17;;
50379;SDS011;37474;59.468;18.040;2024-03-22T01:34:56;14.07;;;8.50;;
50379;SDS011;37474;59.468;18.040;2024-03-22T01:37:22;14.13;;;8.03;;
50379;SDS011;37474;59.468;18.040;2024-03-22T01:39:49;13.40;;;7.27;;
50379;SDS011;37474;59.468;18.040;2024-03-22T01:42:17;13.60;;;7.53;;
50379;SDS011;37474;59.468;18.040;2024-03-22T01:44:44;14.13;;;7.90;;
50379;SDS011;37474;59.468;18.040;2024-03-22T01:47:10;13.73;;;7.97;;
50379;SDS011;37474;59.468;18.040;2024-03-22T01:49:38;14.37;;;7.83;;
50379;SDS011;37474;59.468;18.040;2024-03-22T01:52:04;13.33;;;7.50;;
50379;SDS011;37474;59.468;18.040;2024-03-22T01:54:32;15.73;;;7.73;;
50379;SDS011;37474;59.468;18.040;2024-03-22T01:56:58;12.97;;;7.17;;
50379;SDS011;37474;59.468;18.040;2024-03-22T01:59:29;13.95;;;7.53;;
50379;SDS011;37474;59.468;18.040;2024-03-22T02:01:55;15.37;;;8.33;;
50379;SDS011;37474;59.468;18.040;2024-03-22T02:04:23;13.67;;;7.43;;
50379;SDS011;37474;59.468;18.040;2024-03-22T02:06:49;15.47;;;7.73;;
50379;SDS011;37474;59.468;18.040;2024-03-22T02:09:16;16.23;;;7.30;;
50379;SDS011;37474;59.468;18.040;2024-03-22T02:11:42;14.73;;;8.13;;
50379;SDS011;37474;59.468;18.040;2024-03-22T02:14:10;17.27;;;7.87;;
50379;SDS011;37474;59.468;18.040;2024-03-22T02:16:39;13.20;;;6.97;;
50379;SDS011;37474;59.468;18.040;2024-03-22T02:19:06;15.43;;;7.70;;
50379;SDS011;37474;59.468;18.040;2024-03-22T02:21:32;13.10;;;7.67;;
50379;SDS011;37474;59.468;18.040;2024-03-22T02:24:04;14.03;;;7.57;;
50379;SDS011;37474;59.468;18.040;2024-03-22T02:26:30;13.47;;;7.27;;
50379;SDS011;37474;59.468;18.040;2024-03-22T02:28:57;14.97;;;6.43;;
50379;SDS011;37474;59.468;18.040;2024-03-22T02:31:23;13.93;;;7.40;;
50379;SDS011;37474;59.468;18.040;2024-03-22T02:33:51;12.57;;;6.83;;
50379;SDS011;37474;59.468;18.040;2024-03-22T02:36:17;14.27;;;7.57;;
50379;SDS011;37474;59.468;18.040;2024-03-22T02:38:44;10.97;;;6.63;;
50379;SDS011;37474;59.468;18.040;2024-03-22T02:41:11;12.33;;;6.70;;
50379;SDS011;37474;59.468;18.040;2024-03-22T02:43:38;18.33;;;7.67;;
50379;SDS011;37474;59.468;18.040;2024-03-22T02:46:04;16.30;;;6.97;;
50379;SDS011;37474;59.468;18.040;2024-03-22T02:48:31;12.33;;;6.10;;
50379;SDS011;37474;59.468;18.040;2024-03-22T02:50:57;12.47;;;6.90;;
50379;SDS011;37474;59.468;18.040;2024-03-22T02:53:24;11.87;;;6.47;;
50379;SDS011;37474;59.468;18.040;2024-03-22T02:55:50;12.17;;;6.20;;
50379;SDS011;37474;59.468;18.040;2024-03-22T02:58:19;10.23;;;5.70;;
50379;SDS011;37474;59.468;18.040;2024-03-22T03:00:46;10.63;;;6.23;;
50379;SDS011;37474;59.468;18.040;2024-03-22T03:03:13;10.70;;;6.43;;
50379;SDS011;37474;59.468;18.040;2024-03-22T03:05:39;9.50;;;5.70;;
50379;SDS011;37474;59.468;18.040;2024-03-22T03:08:07;8.97;;;5.50;;
50379;SDS011;37474;59.468;18.040;2024-03-22T03:10:33;9.90;;;5.63;;
50379;SDS011;37474;59.468;18.040;2024-03-22T03:13:00;11.00;;;5.10;;
50379;SDS011;37474;59.468;18.040;2024-03-22T03:15:27;9.53;;;5.90;;
50379;SDS011;37474;59.468;18.040;2024-03-22T03:17:55;10.07;;;5.13;;
50379;SDS011;37474;59.468;18.040;2024-03-22T03:20:21;8.97;;;5.10;;
50379;SDS011;37474;59.468;18.040;2024-03-22T03:22:48;8.17;;;4.67;;
50379;SDS011;37474;59.468;18.040;2024-03-22T03:25:17;7.70;;;4.90;;
50379;SDS011;37474;59.468;18.040;2024-03-22T03:27:44;8.93;;;4.90;;
50379;SDS011;37474;59.468;18.040;2024-03-22T03:30:10;6.83;;;4.37;;
50379;SDS011;37474;59.468;18.040;2024-03-22T03:32:39;9.60;;;4.53;;
50379;SDS011;37474;59.468;18.040;2024-03-22T03:35:06;7.67;;;4.57;;
50379;SDS011;37474;59.468;18.040;2024-03-22T03:37:32;7.57;;;4.60;;
50379;SDS011;37474;59.468;18.040;2024-03-22T03:40:00;7.73;;;4.40;;
50379;SDS011;37474;59.468;18.040;2024-03-22T03:42:26;6.13;;;3.93;;
50379;SDS011;37474;59.468;18.040;2024-03-22T03:44:53;6.03;;;3.90;;
50379;SDS011;37474;59.468;18.040;2024-03-22T03:47:19;10.73;;;3.87;;
50379;SDS011;37474;59.468;18.040;2024-03-22T03:49:47;5.80;;;3.50;;
50379;SDS011;37474;59.468;18.040;2024-03-22T03:52:13;7.00;;;3.90;;
50379;SDS011;37474;59.468;18.040;2024-03-22T03:54:40;8.27;;;3.67;;
50379;SDS011;37474;59.468;18.040;2024-03-22T03:57:06;7.27;;;3.57;;
50379;SDS011;37474;59.468;18.040;2024-03-22T03:59:34;6.17;;;3.47;;
50379;SDS011;37474;59.468;18.040;2024-03-22T04:02:00;6.63;;;3.63;;
50379;SDS011;37474;59.468;18.040;2024-03-22T04:04:27;4.87;;;3.13;;
50379;SDS011;37474;59.468;18.040;2024-03-22T04:06:54;4.97;;;3.20;;
50379;SDS011;37474;59.468;18.040;2024-03-22T04:09:21;4.93;;;3.23;;
50379;SDS011;37474;59.468;18.040;2024-03-22T04:11:47;5.30;;;3.67;;
50379;SDS011;37474;59.468;18.040;2024-03-22T04:14:14;6.43;;;3.80;;
50379;SDS011;37474;59.468;18.040;2024-03-22T04:16:42;5.17;;;3.40;;
50379;SDS011;37474;59.468;18.040;2024-03-22T04:19:09;5.20;;;3.43;;
50379;SDS011;37474;59.468;18.040;2024-03-22T04:21:35;6.17;;;3.83;;
50379;SDS011;37474;59.468;18.040;2024-03-22T04:24:03;9.10;;;4.20;;
50379;SDS011;37474;59.468;18.040;2024-03-22T04:26:30;5.93;;;3.43;;
50379;SDS011;37474;59.468;18.040;2024-03-22T04:28:57;7.80;;;4.67;;
50379;SDS011;37474;59.468;18.040;2024-03-22T04:31:23;7.67;;;4.43;;
50379;SDS011;37474;59.468;18.040;2024-03-22T04:33:50;5.30;;;3.80;;
50379;SDS011;37474;59.468;18.040;2024-03-22T04:36:16;6.73;;;3.90;;
50379;SDS011;37474;59.468;18.040;2024-03-22T04:38:43;7.57;;;4.17;;
50379;SDS011;37474;59.468;18.040;2024-03-22T04:41:11;6.13;;;4.17;;
50379;SDS011;37474;59.468;18.040;2024-03-22T04:43:37;8.50;;;4.30;;
50379;SDS011;37474;59.468;18.040;2024-03-22T04:46:04;7.97;;;4.50;;
50379;SDS011;37474;59.468;18.040;2024-03-22T04:48:31;6.93;;;4.80;;
50379;SDS011;37474;59.468;18.040;2024-03-22T04:50:57;8.07;;;4.23;;
50379;SDS011;37474;59.468;18.040;2024-03-22T04:53:25;6.73;;;4.53;;
50379;SDS011;37474;59.468;18.040;2024-03-22T04:55:53;7.30;;;4.80;;
50379;SDS011;37474;59.468;18.040;2024-03-22T04:58:22;7.67;;;5.00;;
50379;SDS011;37474;59.468;18.040;2024-03-22T05:00:49;8.30;;;4.90;;
50379;SDS011;37474;59.468;18.040;2024-03-22T05:03:16;7.43;;;4.83;;
50379;SDS011;37474;59.468;18.040;2024-03-22T05:05:42;7.50;;;5.70;;
50379;SDS011;37474;59.468;18.040;2024-03-22T05:08:09;7.57;;;5.37;;
50379;SDS011;37474;59.468;18.040;2024-03-22T05:10:35;7.77;;;5.50;;
50379;SDS011;37474;59.468;18.040;2024-03-22T05:13:03;9.17;;;5.67;;
50379;SDS011;37474;59.468;18.040;2024-03-22T05:15:30;8.33;;;5.43;;
50379;SDS011;37474;59.468;18.040;2024-03-22T05:17:57;9.23;;;5.63;;
50379;SDS011;37474;59.468;18.040;2024-03-22T05:20:24;8.77;;;5.60;;
50379;SDS011;37474;59.468;18.040;2024-03-22T05:22:52;11.30;;;6.27;;
50379;SDS011;37474;59.468;18.040;2024-03-22T05:25:18;9.70;;;6.10;;
50379;SDS011;37474;59.468;18.040;2024-03-22T05:27:45;11.43;;;6.30;;
50379;SDS011;37474;59.468;18.040;2024-03-22T05:30:11;10.70;;;6.10;;
50379;SDS011;37474;59.468;18.040;2024-03-22T05:32:41;9.53;;;6.17;;
50379;SDS011;37474;59.468;18.040;2024-03-22T05:35:09;8.75;;;5.97;;
50379;SDS011;37474;59.468;18.040;2024-03-22T05:37:36;8.83;;;5.97;;
50379;SDS011;37474;59.468;18.040;2024-03-22T05:40:02;9.70;;;6.20;;
50379;SDS011;37474;59.468;18.040;2024-03-22T05:42:30;10.73;;;6.90;;
50379;SDS011;37474;59.468;18.040;2024-03-22T05:44:56;11.83;;;6.23;;
50379;SDS011;37474;59.468;18.040;2024-03-22T05:47:23;9.40;;;6.10;;
50379;SDS011;37474;59.468;18.040;2024-03-22T05:49:50;9.50;;;5.97;;
50379;SDS011;37474;59.468;18.040;2024-03-22T05:52:18;9.07;;;6.10;;
50379;SDS011;37474;59.468;18.040;2024-03-22T05:54:44;8.40;;;5.83;;
50379;SDS011;37474;59.468;18.040;2024-03-22T05:57:11;10.90;;;6.20;;
50379;SDS011;37474;59.468;18.040;2024-03-22T05:59:37;8.73;;;5.80;;
50379;SDS011;37474;59.468;18.040;2024-03-22T06:02:05;11.03;;;5.63;;
50379;SDS011;37474;59.468;18.040;2024-03-22T06:04:31;10.70;;;5.60;;
50379;SDS011;37474;59.468;18.040;2024-03-22T06:07:00;10.13;;;5.53;;
50379;SDS011;37474;59.468;18.040;2024-03-22T06:09:28;7.97;;;6.18;;
50379;SDS011;37474;59.468;18.040;2024-03-22T06:12:03;10.33;;;6.43;;
50379;SDS011;37474;59.468;18.040;2024-03-22T06:14:30;10.73;;;6.10;;
50379;SDS011;37474;59.468;18.040;2024-03-22T06:16:57;9.23;;;6.20;;
50379;SDS011;37474;59.468;18.040;2024-03-22T06:19:23;9.37;;;6.03;;
50379;SDS011;37474;59.468;18.040;2024-03-22T06:21:50;10.40;;;5.70;;
50379;SDS011;37474;59.468;18.040;2024-03-22T06:24:18;6.20;;;4.70;;
50379;SDS011;37474;59.468;18.040;2024-03-22T06:26:45;11.47;;;5.87;;
50379;SDS011;37474;59.468;18.040;2024-03-22T06:29:12;7.30;;;5.20;;
50379;SDS011;37474;59.468;18.040;2024-03-22T06:31:38;8.47;;;5.77;;
50379;SDS011;37474;59.468;18.040;2024-03-22T06:34:05;7.80;;;5.47;;
50379;SDS011;37474;59.468;18.040;2024-03-22T06:36:31;8.47;;;6.00;;
50379;SDS011;37474;59.468;18.040;2024-03-22T06:38:58;8.07;;;5.47;;
50379;SDS011;37474;59.468;18.040;2024-03-22T06:41:28;8.63;;;5.57;;
50379;SDS011;37474;59.468;18.040;2024-03-22T06:46:21;7.27;;;5.10;;
50379;SDS011;37474;59.468;18.040;2024-03-22T06:48:48;7.10;;;5.00;;
50379;SDS011;37474;59.468;18.040;2024-03-22T06:51:14;9.30;;;5.27;;
50379;SDS011;37474;59.468;18.040;2024-03-22T06:53:41;6.80;;;5.30;;
50379;SDS011;37474;59.468;18.040;2024-03-22T06:56:07;6.50;;;4.47;;
50379;SDS011;37474;59.468;18.040;2024-03-22T06:58:38;8.02;;;5.03;;
50379;SDS011;37474;59.468;18.040;2024-03-22T07:01:04;7.10;;;4.53;;
50379;SDS011;37474;59.468;18.040;2024-03-22T07:03:31;6.17;;;4.67;;
50379;SDS011;37474;59.468;18.040;2024-03-22T07:05:57;8.27;;;4.70;;
50379;SDS011;37474;59.468;18.040;2024-03-22T07:08:25;7.97;;;4.53;;
50379;SDS011;37474;59.468;18.040;2024-03-22T07:10:54;7.60;;;4.60;;
50379;SDS011;37474;59.468;18.040;2024-03-22T07:13:21;6.40;;;4.18;;
50379;SDS011;37474;59.468;18.040;2024-03-22T07:15:51;7.67;;;4.57;;
50379;SDS011;37474;59.468;18.040;2024-03-22T07:18:17;6.67;;;4.47;;
50379;SDS011;37474;59.468;18.040;2024-03-22T07:20:45;5.40;;;4.00;;
50379;SDS011;37474;59.468;18.040;2024-03-22T07:23:11;8.63;;;4.10;;
50379;SDS011;37474;59.468;18.040;2024-03-22T07:25:38;7.07;;;4.20;;
50379;SDS011;37474;59.468;18.040;2024-03-22T07:28:04;7.27;;;4.47;;
50379;SDS011;37474;59.468;18.040;2024-03-22T07:30:33;7.30;;;5.00;;
50379;SDS011;37474;59.468;18.040;2024-03-22T07:33:02;6.97;;;4.27;;
50379;SDS011;37474;59.468;18.040;2024-03-22T07:35:29;6.83;;;4.60;;
50379;SDS011;37474;59.468;18.040;2024-03-22T07:37:56;6.23;;;4.63;;
50379;SDS011;37474;59.468;18.040;2024-03-22T07:40:23;7.83;;;4.90;;
50379;SDS011;37474;59.468;18.040;2024-03-22T07:42:49;6.33;;;4.70;;
50379;SDS011;37474;59.468;18.040;2024-03-22T07:45:16;7.60;;;4.97;;
50379;SDS011;37474;59.468;18.040;2024-03-22T07:47:42;7.27;;;4.70;;
50379;SDS011;37474;59.468;18.040;2024-03-22T07:50:11;8.57;;;5.13;;
50379;SDS011;37474;59.468;18.040;2024-03-22T07:52:36;7.10;;;4.67;;
50379;SDS011;37474;59.468;18.040;2024-03-22T07:55:04;6.53;;;4.60;;
50379;SDS011;37474;59.468;18.040;2024-03-22T07:57:30;8.53;;;4.40;;
50379;SDS011;37474;59.468;18.040;2024-03-22T08:00:00;6.38;;;4.43;;
50379;SDS011;37474;59.468;18.040;2024-03-22T08:02:27;5.23;;;4.13;;
50379;SDS011;37474;59.468;18.040;2024-03-22T08:04:54;9.80;;;4.43;;
50379;SDS011;37474;59.468;18.040;2024-03-22T08:07:21;7.17;;;4.03;;
50379;SDS011;37474;59.468;18.040;2024-03-22T08:09:48;5.63;;;4.17;;
50379;SDS011;37474;59.468;18.040;2024-03-22T08:12:14;7.53;;;4.37;;
50379;SDS011;37474;59.468;18.040;2024-03-22T08:14:41;4.20;;;3.80;;
50379;SDS011;37474;59.468;18.040;2024-03-22T08:17:07;6.13;;;4.00;;
50379;SDS011;37474;59.468;18.040;2024-03-22T08:19:36;6.17;;;4.50;;
50379;SDS011;37474;59.468;18.040;2024-03-22T08:22:03;7.10;;;4.17;;
50379;SDS011;37474;59.468;18.040;2024-03-22T08:24:34;4.55;;;3.83;;
50379;SDS011;37474;59.468;18.040;2024-03-22T08:27:01;9.67;;;4.27;;
50379;SDS011;37474;59.468;18.040;2024-03-22T08:29:28;6.50;;;4.30;;
50379;SDS011;37474;59.468;18.040;2024-03-22T08:31:53;5.07;;;4.20;;
50379;SDS011;37474;59.468;18.040;2024-03-22T08:34:20;6.00;;;3.83;;
50379;SDS011;37474;59.468;18.040;2024-03-22T08:36:46;6.47;;;4.10;;
50379;SDS011;37474;59.468;18.040;2024-03-22T08:39:13;6.80;;;3.90;;
50379;SDS011;37474;59.468;18.040;2024-03-22T08:41:42;5.70;;;3.77;;
50379;SDS011;37474;59.468;18.040;2024-03-22T08:44:09;5.77;;;3.93;;
50379;SDS011;37474;59.468;18.040;2024-03-22T08:46:35;5.93;;;3.80;;
50379;SDS011;37474;59.468;18.040;2024-03-22T08:49:05;8.48;;;4.05;;
50379;SDS011;37474;59.468;18.040;2024-03-22T08:51:31;6.23;;;3.83;;
50379;SDS011;37474;59.468;18.040;2024-03-22T08:53:59;5.97;;;3.67;;
50379;SDS011;37474;59.468;18.040;2024-03-22T08:56:26;4.90;;;3.50;;
50379;SDS011;37474;59.468;18.040;2024-03-22T08:58:54;5.53;;;3.73;;
50379;SDS011;37474;59.468;18.040;2024-03-22T09:01:20;4.90;;;3.57;;
50379;SDS011;37474;59.468;18.040;2024-03-22T09:03:47;4.93;;;3.67;;
50379;SDS011;37474;59.468;18.040;2024-03-22T09:06:14;4.43;;;3.47;;
50379;SDS011;37474;59.468;18.040;2024-03-22T09:08:41;5.90;;;3.50;;
50379;SDS011;37474;59.468;18.040;2024-03-22T09:11:07;4.77;;;3.13;;
50379;SDS011;37474;59.468;18.040;2024-03-22T09:13:34;4.77;;;2.70;;
50379;SDS011;37474;59.468;18.040;2024-03-22T09:16:02;4.83;;;2.90;;
50379;SDS011;37474;59.468;18.040;2024-03-22T09:18:29;3.63;;;2.80;;
50379;SDS011;37474;59.468;18.040;2024-03-22T09:20:55;3.63;;;2.80;;
50379;SDS011;37474;59.468;18.040;2024-03-22T09:23:22;4.07;;;3.20;;
50379;SDS011;37474;59.468;18.040;2024-03-22T09:25:49;5.40;;;3.20;;
50379;SDS011;37474;59.468;18.040;2024-03-22T09:28:16;4.83;;;2.87;;
50379;SDS011;37474;59.468;18.040;2024-03-22T09:30:42;4.93;;;3.67;;
50379;SDS011;37474;59.468;18.040;2024-03-22T09:33:11;5.20;;;3.27;;
50379;SDS011;37474;59.468;18.040;2024-03-22T09:35:37;4.80;;;3.10;;
50379;SDS011;37474;59.468;18.040;2024-03-22T09:38:07;6.90;;;3.33;;
50379;SDS011;37474;59.468;18.040;2024-03-22T09:40:33;4.83;;;3.30;;
50379;SDS011;37474;59.468;18.040;2024-03-22T09:43:01;4.43;;;3.43;;
50379;SDS011;37474;59.468;18.040;2024-03-22T09:45:29;5.47;;;3.60;;
50379;SDS011;37474;59.468;18.040;2024-03-22T09:47:57;7.40;;;3.90;;
50379;SDS011;37474;59.468;18.040;2024-03-22T09:50:26;5.63;;;4.00;;
50379;SDS011;37474;59.468;18.040;2024-03-22T09:52:53;6.00;;;4.00;;
50379;SDS011;37474;59.468;18.040;2024-03-22T09:55:21;5.93;;;4.07;;
50379;SDS011;37474;59.468;18.040;2024-03-22T09:57:49;5.17;;;4.10;;
50379;SDS011;37474;59.468;18.040;2024-03-22T10:00:17;6.67;;;4.50;;
50379;SDS011;37474;59.468;18.040;2024-03-22T10:02:45;7.47;;;4.53;;
50379;SDS011;37474;59.468;18.040;2024-03-22T10:05:12;6.77;;;4.67;;
50379;SDS011;37474;59.468;18.040;2024-03-22T10:07:41;7.33;;;4.80;;
50379;SDS011;37474;59.468;18.040;2024-03-22T10:10:07;7.30;;;4.77;;
50379;SDS011;37474;59.468;18.040;2024-03-22T10:12:34;7.57;;;4.83;;
50379;SDS011;37474;59.468;18.040;2024-03-22T10:15:00;9.93;;;5.17;;
50379;SDS011;37474;59.468;18.040;2024-03-22T10:17:27;8.10;;;4.90;;
50379;SDS011;37474;59.468;18.040;2024-03-22T10:19:54;8.33;;;5.10;;
50379;SDS011;37474;59.468;18.040;2024-03-22T10:22:21;7.10;;;4.83;;
50379;SDS011;37474;59.468;18.040;2024-03-22T10:24:49;6.73;;;4.53;;
50379;SDS011;37474;59.468;18.040;2024-03-22T10:27:16;7.73;;;4.67;;
50379;SDS011;37474;59.468;18.040;2024-03-22T10:29:43;5.93;;;4.47;;
50379;SDS011;37474;59.468;18.040;2024-03-22T10:32:10;6.60;;;4.53;;
50379;SDS011;37474;59.468;18.040;2024-03-22T10:34:37;7.47;;;4.80;;
50379;SDS011;37474;59.468;18.040;2024-03-22T10:37:06;7.33;;;4.87;;
50379;SDS011;37474;59.468;18.040;2024-03-22T10:39:35;5.97;;;4.23;;
50379;SDS011;37474;59.468;18.040;2024-03-22T10:42:06;6.57;;;4.63;;
50379;SDS011;37474;59.468;18.040;2024-03-22T10:44:32;8.23;;;4.90;;
50379;SDS011;37474;59.468;18.040;2024-03-22T10:47:00;5.93;;;4.73;;
50379;SDS011;37474;59.468;18.040;2024-03-22T10:49:27;10.83;;;4.90;;
50379;SDS011;37474;59.468;18.040;2024-03-22T10:51:57;8.50;;;5.05;;
50379;SDS011;37474;59.468;18.040;2024-03-22T10:54:27;6.32;;;4.15;;
50379;SDS011;37474;59.468;18.040;2024-03-22T10:56:58;6.97;;;5.10;;
50379;SDS011;37474;59.468;18.040;2024-03-22T10:59:26;6.10;;;4.53;;
50379;SDS011;37474;59.468;18.040;2024-03-22T11:01:53;7.00;;;4.60;;
50379;SDS011;37474;59.468;18.040;2024-03-22T11:04:29;6.03;;;4.40;;
50379;SDS011;37474;59.468;18.040;2024-03-22T11:06:56;7.47;;;4.50;;
50379;SDS011;37474;59.468;18.040;2024-03-22T11:09:25;5.00;;;4.23;;
50379;SDS011;37474;59.468;18.040;2024-03-22T11:11:53;7.27;;;4.10;;
50379;SDS011;37474;59.468;18.040;2024-03-22T11:14:20;7.00;;;3.80;;
50379;SDS011;37474;59.468;18.040;2024-03-22T11:16:51;4.90;;;4.10;;
50379;SDS011;37474;59.468;18.040;2024-03-22T11:19:18;6.13;;;4.13;;
50379;SDS011;37474;59.468;18.040;2024-03-22T11:21:45;6.40;;;3.93;;
50379;SDS011;37474;59.468;18.040;2024-03-22T11:24:11;6.87;;;3.90;;
50379;SDS011;37474;59.468;18.040;2024-03-22T11:26:38;6.07;;;3.40;;
50379;SDS011;37474;59.468;18.040;2024-03-22T11:29:04;5.03;;;3.63;;
50379;SDS011;37474;59.468;18.040;2024-03-22T11:31:31;7.50;;;3.73;;
50379;SDS011;37474;59.468;18.040;2024-03-22T11:33:59;6.30;;;3.50;;
50379;SDS011;37474;59.468;18.040;2024-03-22T11:36:26;5.50;;;3.40;;
50379;SDS011;37474;59.468;18.040;2024-03-22T11:38:52;5.17;;;3.60;;
50379;SDS011;37474;59.468;18.040;2024-03-22T11:41:20;4.50;;;3.40;;
50379;SDS011;37474;59.468;18.040;2024-03-22T11:43:50;6.00;;;2.97;;
50379;SDS011;37474;59.468;18.040;2024-03-22T11:46:18;5.97;;;3.47;;
50379;SDS011;37474;59.468;18.040;2024-03-22T11:48:50;5.57;;;3.17;;
50379;SDS011;37474;59.468;18.040;2024-03-22T11:51:19;4.17;;;3.07;;
50379;SDS011;37474;59.468;18.040;2024-03-22T11:53:48;4.23;;;3.27;;
50379;SDS011;37474;59.468;18.040;2024-03-22T11:56:17;5.23;;;3.53;;
50379;SDS011;37474;59.468;18.040;2024-03-22T11:58:45;4.57;;;3.23;;
50379;SDS011;37474;59.468;18.040;2024-03-22T12:01:12;6.03;;;3.73;;
50379;SDS011;37474;59.468;18.040;2024-03-22T12:03:39;3.97;;;3.10;;
50379;SDS011;37474;59.468;18.040;2024-03-22T12:06:08;6.27;;;4.00;;
50379;SDS011;37474;59.468;18.040;2024-03-22T12:08:37;4.73;;;3.30;;
50379;SDS011;37474;59.468;18.040;2024-03-22T12:11:06;5.68;;;3.05;;
50379;SDS011;37474;59.468;18.040;2024-03-22T12:13:33;7.67;;;4.30;;
50379;SDS011;37474;59.468;18.040;2024-03-22T12:16:00;8.33;;;4.47;;
50379;SDS011;37474;59.468;18.040;2024-03-22T12:18:26;7.90;;;4.37;;
50379;SDS011;37474;59.468;18.040;2024-03-22T12:20:57;5.18;;;3.85;;
50379;SDS011;37474;59.468;18.040;2024-03-22T12:23:24;7.67;;;4.57;;
50379;SDS011;37474;59.468;18.040;2024-03-22T12:25:51;6.20;;;3.77;;
50379;SDS011;37474;59.468;18.040;2024-03-22T12:28:20;5.23;;;4.00;;
50379;SDS011;37474;59.468;18.040;2024-03-22T12:30:46;7.10;;;4.23;;
50379;SDS011;37474;59.468;18.040;2024-03-22T12:33:13;5.73;;;4.10;;
50379;SDS011;37474;59.468;18.040;2024-03-22T12:35:41;6.13;;;4.43;;
50379;SDS011;37474;59.468;18.040;2024-03-22T12:38:08;4.83;;;4.07;;
50379;SDS011;37474;59.468;18.040;2024-03-22T12:40:36;6.50;;;4.30;;
50379;SDS011;37474;59.468;18.040;2024-03-22T12:43:05;6.27;;;3.93;;
50379;SDS011;37474;59.468;18.040;2024-03-22T12:45:32;6.03;;;4.23;;
50379;SDS011;37474;59.468;18.040;2024-03-22T12:47:58;4.47;;;3.60;;
50379;SDS011;37474;59.468;18.040;2024-03-22T12:50:25;7.60;;;4.30;;
50379;SDS011;37474;59.468;18.040;2024-03-22T12:52:52;6.83;;;4.03;;
50379;SDS011;37474;59.468;18.040;2024-03-22T12:55:19;6.07;;;4.27;;
50379;SDS011;37474;59.468;18.040;2024-03-22T12:57:45;5.23;;;4.00;;
50379;SDS011;37474;59.468;18.040;2024-03-22T13:00:14;6.53;;;4.40;;
50379;SDS011;37474;59.468;18.040;2024-03-22T13:02:43;6.40;;;4.50;;
50379;SDS011;37474;59.468;18.040;2024-03-22T13:05:11;7.67;;;4.33;;
50379;SDS011;37474;59.468;18.040;2024-03-22T13:07:37;6.87;;;4.37;;
50379;SDS011;37474;59.468;18.040;2024-03-22T13:10:05;7.03;;;4.30;;
50379;SDS011;37474;59.468;18.040;2024-03-22T13:12:31;4.47;;;3.77;;
50379;SDS011;37474;59.468;18.040;2024-03-22T13:14:59;7.23;;;4.03;;
50379;SDS011;37474;59.468;18.040;2024-03-22T13:17:27;6.10;;;3.80;;
50379;SDS011;37474;59.468;18.040;2024-03-22T13:19:54;7.07;;;4.00;;
50379;SDS011;37474;59.468;18.040;2024-03-22T13:22:20;6.23;;;3.77;;
50379;SDS011;37474;59.468;18.040;2024-03-22T13:24:47;6.33;;;3.77;;
50379;SDS011;37474;59.468;18.040;2024-03-22T13:27:16;6.23;;;3.23;;
50379;SDS011;37474;59.468;18.040;2024-03-22T13:29:43;5.37;;;3.10;;
50379;SDS011;37474;59.468;18.040;2024-03-22T13:32:09;4.37;;;2.87;;
50379;SDS011;37474;59.468;18.040;2024-03-22T13:34:37;5.00;;;2.60;;
50379;SDS011;37474;59.468;18.040;2024-03-22T13:37:03;4.87;;;2.57;;
50379;SDS011;37474;59.468;18.040;2024-03-22T13:39:32;3.63;;;2.70;;
50379;SDS011;37474;59.468;18.040;2024-03-22T13:41:58;4.73;;;2.67;;
50379;SDS011;37474;59.468;18.040;2024-03-22T13:44:25;2.50;;;2.00;;
50379;SDS011;37474;59.468;18.040;2024-03-22T13:46:52;3.10;;;1.90;;
50379;SDS011;37474;59.468;18.040;2024-03-22T13:49:19;4.07;;;2.40;;
50379;SDS011;37474;59.468;18.040;2024-03-22T13:51:47;4.43;;;2.10;;
50379;SDS011;37474;59.468;18.040;2024-03-22T13:54:14;2.53;;;1.73;;
50379;SDS011;37474;59.468;18.040;2024-03-22T13:56:41;4.63;;;2.03;;
50379;SDS011;37474;59.468;18.040;2024-03-22T13:59:08;4.77;;;1.77;;
50379;SDS011;37474;59.468;18.040;2024-03-22T14:01:34;4.37;;;2.00;;
50379;SDS011;37474;59.468;18.040;2024-03-22T14:04:01;3.70;;;2.20;;
50379;SDS011;37474;59.468;18.040;2024-03-22T14:06:30;3.47;;;2.03;;
50379;SDS011;37474;59.468;18.040;2024-03-22T14:08:59;5.37;;;1.77;;
50379;SDS011;37474;59.468;18.040;2024-03-22T14:11:26;4.73;;;2.00;;
50379;SDS011;37474;59.468;18.040;2024-03-22T14:13:56;3.60;;;1.60;;
50379;SDS011;37474;59.468;18.040;2024-03-22T14:16:22;5.43;;;1.80;;
50379;SDS011;37474;59.468;18.040;2024-03-22T14:18:50;6.23;;;2.10;;
50379;SDS011;37474;59.468;18.040;2024-03-22T14:21:19;4.40;;;1.93;;
50379;SDS011;37474;59.468;18.040;2024-03-22T14:23:45;6.33;;;1.93;;
50379;SDS011;37474;59.468;18.040;2024-03-22T14:26:14;3.90;;;1.70;;
50379;SDS011;37474;59.468;18.040;2024-03-22T14:28:40;4.97;;;1.70;;
50379;SDS011;37474;59.468;18.040;2024-03-22T14:31:08;6.73;;;2.10;;
50379;SDS011;37474;59.468;18.040;2024-03-22T14:33:37;6.90;;;2.60;;
50379;SDS011;37474;59.468;18.040;2024-03-22T14:36:05;4.30;;;1.90;;